Time;durP1;ratioP1;P1;durP2;ratioP2;P2;SDS_P1;SDS_P2;PMS_P1;PMS_P2;Temp;Humidity;BMP_temperature;BMP_pressure;BME280_temperature;BME280_humidity;BME280_pressure;Samples;Min_cycle;Max_cycle;Signal;HPM_P1;HPM_P2
2021/09/23 00:00:26;;;;;;;35.63;31.13;;;;;;;;;;5007238;28;20222;-76
2021/09/23 00:03:11;;;;;;;37.53;29.30;;;;;;;;;;5008366;28;20854;-76
2021/09/23 00:05:40;;;;;;;35.63;28.63;;;;;;;;;;5008462;28;20215;-76
2021/09/23 00:08:09;;;;;;;34.37;28.57;;;;;;;;;;5007755;28;20263;-76
2021/09/23 00:10:39;;;;;;;37.97;30.40;;;;;;;;;;5007702;28;20222;-76
2021/09/23 00:13:07;;;;;;;35.67;30.73;;;;;;;;;;5007619;28;20656;-76
2021/09/23 00:15:35;;;;;;;35.93;30.50;;;;;;;;;;5008224;28;20293;-76
2021/09/23 00:18:04;;;;;;;37.03;29.77;;;;;;;;;;5007808;28;20245;-76
2021/09/23 00:20:36;;;;;;;35.53;29.60;;;;;;;;;;5007290;28;20239;-76
2021/09/23 00:23:02;;;;;;;37.03;29.87;;;;;;;;;;5007853;28;20215;-76
2021/09/23 00:25:31;;;;;;;32.93;28.53;;;;;;;;;;5008030;28;20242;-76
2021/09/23 00:27:59;;;;;;;36.40;28.83;;;;;;;;;;5007586;28;20726;-76
2021/09/23 00:30:27;;;;;;;32.47;28.20;;;;;;;;;;5007108;28;20228;-76
2021/09/23 00:32:54;;;;;;;34.03;26.63;;;;;;;;;;5007547;28;20751;-76
2021/09/23 00:35:21;;;;;;;39.43;29.73;;;;;;;;;;5007099;28;20285;-76
2021/09/23 00:37:48;;;;;;;35.63;28.20;;;;;;;;;;5006616;28;20254;-76
2021/09/23 00:40:16;;;;;;;36.40;29.03;;;;;;;;;;5006716;28;20266;-76
2021/09/23 00:42:47;;;;;;;35.87;28.40;;;;;;;;;;5006921;28;20283;-76
2021/09/23 00:45:14;;;;;;;35.83;28.80;;;;;;;;;;5007706;28;20230;-76
2021/09/23 00:47:41;;;;;;;35.17;29.97;;;;;;;;;;5007309;28;20231;-76
2021/09/23 00:50:09;;;;;;;33.53;29.60;;;;;;;;;;5007025;28;20643;-76
2021/09/23 00:52:37;;;;;;;38.00;28.40;;;;;;;;;;5007589;28;21238;-76
2021/09/23 00:55:05;;;;;;;34.87;29.80;;;;;;;;;;5007065;28;20291;-76
2021/09/23 00:57:31;;;;;;;32.43;26.87;;;;;;;;;;5007618;28;20235;-75
2021/09/23 01:00:00;;;;;;;33.63;28.13;;;;;;;;;;5007196;28;20611;-76
2021/09/23 01:02:26;;;;;;;38.47;29.47;;;;;;;;;;5007792;28;20223;-76
2021/09/23 01:04:53;;;;;;;32.10;28.33;;;;;;;;;;5007221;28;20569;-76
2021/09/23 01:07:21;;;;;;;37.03;27.30;;;;;;;;;;5007182;28;21069;-76
2021/09/23 01:09:50;;;;;;;35.03;29.03;;;;;;;;;;5011650;28;20273;-76
2021/09/23 01:12:18;;;;;;;34.77;27.90;;;;;;;;;;5011195;28;20223;-76
2021/09/23 01:14:46;;;;;;;31.37;27.13;;;;;;;;;;5011015;28;20207;-76
2021/09/23 01:17:15;;;;;;;35.63;28.07;;;;;;;;;;5011097;28;20226;-76
2021/09/23 01:19:43;;;;;;;34.67;26.97;;;;;;;;;;5010692;28;20341;-76
2021/09/23 01:22:12;;;;;;;34.10;28.40;;;;;;;;;;5010467;28;20211;-76
2021/09/23 01:24:41;;;;;;;37.07;29.07;;;;;;;;;;5010808;28;20211;-76
2021/09/23 01:27:09;;;;;;;32.00;28.53;;;;;;;;;;5011039;28;20235;-76
2021/09/23 01:29:36;;;;;;;41.03;29.27;;;;;;;;;;5011535;28;20207;-76
2021/09/23 01:32:05;;;;;;;33.87;27.47;;;;;;;;;;5010824;28;20639;-76
2021/09/23 01:34:33;;;;;;;40.63;28.97;;;;;;;;;;5010785;28;20235;-76
2021/09/23 01:36:59;;;;;;;33.23;27.57;;;;;;;;;;5010385;28;20286;-76
2021/09/23 01:39:28;;;;;;;34.97;27.33;;;;;;;;;;5010272;28;20235;-76
2021/09/23 01:41:55;;;;;;;33.90;26.77;;;;;;;;;;5010216;28;20231;-76
2021/09/23 01:44:22;;;;;;;37.27;27.47;;;;;;;;;;5010607;28;20250;-76
2021/09/23 01:46:48;;;;;;;36.97;28.07;;;;;;;;;;5010720;28;20274;-77
2021/09/23 01:49:15;;;;;;;30.63;26.83;;;;;;;;;;5010590;28;20210;-76
2021/09/23 01:51:42;;;;;;;38.60;29.03;;;;;;;;;;5010267;28;20216;-76
2021/09/23 01:54:08;;;;;;;35.40;27.87;;;;;;;;;;5010819;28;20207;-76
2021/09/23 01:56:36;;;;;;;34.93;28.47;;;;;;;;;;5010471;28;20239;-75
2021/09/23 01:59:03;;;;;;;36.10;29.37;;;;;;;;;;5009975;28;20236;-76
2021/09/23 02:01:30;;;;;;;32.50;27.17;;;;;;;;;;5010672;28;20224;-76
2021/09/23 02:03:56;;;;;;;38.93;29.30;;;;;;;;;;5010222;28;21123;-76
2021/09/23 02:06:24;;;;;;;39.90;29.47;;;;;;;;;;5010259;28;20212;-76
2021/09/23 02:08:50;;;;;;;36.80;28.50;;;;;;;;;;5009904;28;20211;-76
2021/09/23 02:11:16;;;;;;;35.70;29.07;;;;;;;;;;5010079;28;20228;-76
2021/09/23 02:13:44;;;;;;;38.87;28.33;;;;;;;;;;5009236;28;20208;-76
2021/09/23 02:16:11;;;;;;;36.90;30.40;;;;;;;;;;5010322;28;20223;-76
2021/09/23 02:18:37;;;;;;;37.70;30.23;;;;;;;;;;5009628;28;20236;-76
2021/09/23 02:21:04;;;;;;;38.93;31.03;;;;;;;;;;5010200;28;20625;-76
2021/09/23 02:23:30;;;;;;;39.10;30.07;;;;;;;;;;5010283;28;20689;-76
2021/09/23 02:25:57;;;;;;;37.43;30.50;;;;;;;;;;5009418;28;20236;-76
2021/09/23 02:28:23;;;;;;;39.77;32.20;;;;;;;;;;5009511;28;20223;-76
2021/09/23 02:30:51;;;;;;;39.70;31.07;;;;;;;;;;5009779;28;20267;-76
2021/09/23 02:33:18;;;;;;;40.27;30.80;;;;;;;;;;5009937;28;20211;-76
2021/09/23 02:35:44;;;;;;;42.87;31.83;;;;;;;;;;5009470;28;20228;-76
2021/09/23 02:38:11;;;;;;;37.93;30.67;;;;;;;;;;5009582;28;20640;-76
2021/09/23 02:40:37;;;;;;;39.97;29.80;;;;;;;;;;5009751;28;20650;-76
2021/09/23 02:43:04;;;;;;;42.30;31.13;;;;;;;;;;5009737;28;20285;-76
2021/09/23 02:45:30;;;;;;;40.47;29.20;;;;;;;;;;5009748;28;20728;-76
2021/09/23 02:47:58;;;;;;;39.03;29.67;;;;;;;;;;5008236;28;20230;-76
2021/09/23 02:50:25;;;;;;;33.70;27.90;;;;;;;;;;5009067;28;20219;-76
2021/09/23 02:52:51;;;;;;;40.30;30.43;;;;;;;;;;5009327;28;20212;-76
2021/09/23 02:55:18;;;;;;;35.53;27.93;;;;;;;;;;5009632;28;20208;-77
2021/09/23 02:57:44;;;;;;;38.20;29.50;;;;;;;;;;5008794;28;20243;-76
2021/09/23 03:00:11;;;;;;;39.70;29.30;;;;;;;;;;5008773;28;20232;-76
2021/09/23 03:02:38;;;;;;;41.63;28.10;;;;;;;;;;5009237;28;20216;-76
2021/09/23 03:05:06;;;;;;;35.77;29.07;;;;;;;;;;5009144;28;20220;-76
2021/09/23 03:07:33;;;;;;;36.60;28.97;;;;;;;;;;5008813;28;20652;-76
2021/09/23 03:09:59;;;;;;;39.93;29.87;;;;;;;;;;5009323;28;20212;-76
2021/09/23 03:12:26;;;;;;;36.37;29.03;;;;;;;;;;5009054;28;20231;-76
2021/09/23 03:14:52;;;;;;;36.53;29.90;;;;;;;;;;5008599;28;20223;-76
2021/09/23 03:17:19;;;;;;;35.73;30.10;;;;;;;;;;5008129;28;20219;-76
2021/09/23 03:19:45;;;;;;;41.57;32.63;;;;;;;;;;5008367;28;20231;-76
2021/09/23 03:22:16;;;;;;;42.10;32.53;;;;;;;;;;5008423;28;20219;-76
2021/09/23 03:24:43;;;;;;;41.37;32.83;;;;;;;;;;5009063;28;20231;-76
2021/09/23 03:27:10;;;;;;;43.53;33.77;;;;;;;;;;5008761;28;20243;-76
2021/09/23 03:29:36;;;;;;;39.70;32.57;;;;;;;;;;5008496;28;20876;-76
2021/09/23 03:32:03;;;;;;;40.83;32.43;;;;;;;;;;5007613;28;20216;-76
2021/09/23 03:34:30;;;;;;;44.93;34.30;;;;;;;;;;5008529;28;20216;-76
2021/09/23 03:36:56;;;;;;;44.83;34.27;;;;;;;;;;5007329;28;20246;-76
2021/09/23 03:39:24;;;;;;;41.17;33.53;;;;;;;;;;5009023;28;20241;-76
2021/09/23 03:41:51;;;;;;;41.43;35.50;;;;;;;;;;5008238;28;20283;-76
2021/09/23 03:44:18;;;;;;;41.73;34.17;;;;;;;;;;5008847;28;20622;-77
2021/09/23 03:46:44;;;;;;;44.67;36.40;;;;;;;;;;5007893;28;20216;-76
2021/09/23 03:49:11;;;;;;;46.23;35.13;;;;;;;;;;5007274;28;20212;-76
2021/09/23 03:51:37;;;;;;;45.77;36.60;;;;;;;;;;5008657;28;20243;-76
2021/09/23 03:54:04;;;;;;;47.90;36.57;;;;;;;;;;5007795;28;20674;-76
2021/09/23 03:56:31;;;;;;;49.70;37.70;;;;;;;;;;5008398;28;20710;-76
2021/09/23 03:58:58;;;;;;;49.53;37.53;;;;;;;;;;5008167;28;20909;-78
2021/09/23 04:01:24;;;;;;;46.70;37.03;;;;;;;;;;5008624;28;20698;-76
2021/09/23 04:03:51;;;;;;;50.20;39.30;;;;;;;;;;5007209;28;20261;-76
2021/09/23 04:06:17;;;;;;;45.90;36.10;;;;;;;;;;5008078;28;20212;-76
2021/09/23 04:08:43;;;;;;;53.07;38.27;;;;;;;;;;5007247;28;20242;-76
2021/09/23 04:11:10;;;;;;;46.70;36.50;;;;;;;;;;5008401;28;20632;-76
2021/09/23 04:13:38;;;;;;;47.87;37.93;;;;;;;;;;5008351;28;20212;-76
2021/09/23 04:16:05;;;;;;;49.40;38.13;;;;;;;;;;5007978;28;20203;-76
2021/09/23 04:18:31;;;;;;;54.37;41.37;;;;;;;;;;5007142;28;20251;-76
2021/09/23 04:20:58;;;;;;;51.87;40.27;;;;;;;;;;5008293;28;20235;-76
2021/09/23 04:23:24;;;;;;;50.17;41.57;;;;;;;;;;5007892;28;20215;-76
2021/09/23 04:25:50;;;;;;;50.30;39.57;;;;;;;;;;5007846;28;20242;-76
2021/09/23 04:28:17;;;;;;;51.83;39.70;;;;;;;;;;5007439;28;20218;-76
2021/09/23 04:30:45;;;;;;;58.03;44.53;;;;;;;;;;5007544;28;20438;-75
2021/09/23 04:33:11;;;;;;;59.67;45.80;;;;;;;;;;5007876;28;20204;-75
2021/09/23 04:35:38;;;;;;;55.40;43.67;;;;;;;;;;5007681;28;21132;-75
2021/09/23 04:38:05;;;;;;;56.90;44.00;;;;;;;;;;5007116;28;20247;-75
2021/09/23 04:40:31;;;;;;;54.90;43.73;;;;;;;;;;5007046;28;20310;-75
2021/09/23 04:43:00;;;;;;;61.07;44.87;;;;;;;;;;5007304;28;20223;-75
2021/09/23 04:45:27;;;;;;;62.63;46.73;;;;;;;;;;5007291;28;20705;-75
2021/09/23 04:47:55;;;;;;;62.03;46.67;;;;;;;;;;5006101;28;20233;-75
2021/09/23 04:50:21;;;;;;;60.90;47.40;;;;;;;;;;5007022;28;21006;-75
2021/09/23 04:52:48;;;;;;;59.93;46.47;;;;;;;;;;5007201;28;20274;-75
2021/09/23 04:55:14;;;;;;;65.57;49.80;;;;;;;;;;5007282;28;20227;-74
2021/09/23 04:57:41;;;;;;;67.30;48.47;;;;;;;;;;5006817;28;20286;-75
2021/09/23 05:00:09;;;;;;;70.87;51.87;;;;;;;;;;5006954;28;20282;-75
2021/09/23 05:02:35;;;;;;;67.67;51.97;;;;;;;;;;5007081;28;21009;-75
2021/09/23 05:05:04;;;;;;;72.00;51.53;;;;;;;;;;5007258;28;20216;-75
2021/09/23 05:07:31;;;;;;;67.63;52.17;;;;;;;;;;5006780;28;20290;-75
2021/09/23 05:09:57;;;;;;;75.43;54.57;;;;;;;;;;5004724;28;20208;-75
2021/09/23 05:12:24;;;;;;;80.57;54.77;;;;;;;;;;5005607;28;20326;-75
2021/09/23 05:14:51;;;;;;;75.33;53.67;;;;;;;;;;5006967;28;20310;-75
2021/09/23 05:17:17;;;;;;;80.17;52.33;;;;;;;;;;5005544;28;20274;-75
2021/09/23 05:19:43;;;;;;;74.90;54.13;;;;;;;;;;5005292;28;20290;-75
2021/09/23 05:22:11;;;;;;;78.67;56.03;;;;;;;;;;5005800;28;20722;-75
2021/09/23 05:24:38;;;;;;;83.20;56.20;;;;;;;;;;5004536;28;20208;-75
2021/09/23 05:27:04;;;;;;;83.13;59.20;;;;;;;;;;5006009;28;20234;-76
2021/09/23 05:29:31;;;;;;;83.50;60.23;;;;;;;;;;5004791;28;20211;-75
2021/09/23 05:31:57;;;;;;;83.73;61.07;;;;;;;;;;5004985;28;20208;-75
2021/09/23 05:34:24;;;;;;;85.77;61.17;;;;;;;;;;5006673;28;20262;-75
2021/09/23 05:36:51;;;;;;;104.63;65.23;;;;;;;;;;5005477;28;20250;-75
2021/09/23 05:39:19;;;;;;;92.67;64.13;;;;;;;;;;5005628;28;20215;-75
2021/09/23 05:41:46;;;;;;;99.07;63.87;;;;;;;;;;5005419;28;20602;-75
2021/09/23 05:44:12;;;;;;;104.53;65.17;;;;;;;;;;5005394;28;20219;-75
2021/09/23 05:46:38;;;;;;;96.13;65.47;;;;;;;;;;5005041;28;20216;-75
2021/09/23 05:49:05;;;;;;;101.43;65.87;;;;;;;;;;5004930;28;20231;-75
2021/09/23 05:51:32;;;;;;;99.70;67.47;;;;;;;;;;5005667;28;20216;-75
2021/09/23 05:53:58;;;;;;;101.57;67.07;;;;;;;;;;5007217;28;20211;-75
2021/09/23 05:56:26;;;;;;;97.67;67.37;;;;;;;;;;5009114;28;20228;-75
2021/09/23 05:58:52;;;;;;;96.07;64.67;;;;;;;;;;5008744;28;20270;-75
2021/09/23 06:01:19;;;;;;;101.57;67.77;;;;;;;;;;5007896;28;20232;-75
2021/09/23 06:03:45;;;;;;;91.57;67.33;;;;;;;;;;5009951;28;20319;-75
2021/09/23 06:06:12;;;;;;;97.60;67.50;;;;;;;;;;5008630;28;20864;-75
2021/09/23 06:08:38;;;;;;;103.17;65.97;;;;;;;;;;5007793;28;20211;-75
2021/09/23 06:11:04;;;;;;;101.17;63.23;;;;;;;;;;5007948;28;20235;-75
2021/09/23 06:13:33;;;;;;;87.17;59.20;;;;;;;;;;5008346;28;20215;-75
2021/09/23 06:15:59;;;;;;;93.17;61.40;;;;;;;;;;5007239;28;20216;-74
2021/09/23 06:18:25;;;;;;;87.30;62.53;;;;;;;;;;5007761;28;20734;-75
2021/09/23 06:20:52;;;;;;;93.37;63.63;;;;;;;;;;5007318;28;20247;-75
2021/09/23 06:23:18;;;;;;;89.97;62.40;;;;;;;;;;5006698;28;20262;-75
2021/09/23 06:25:45;;;;;;;86.90;61.77;;;;;;;;;;5007538;28;20258;-75
2021/09/23 06:28:11;;;;;;;79.90;58.50;;;;;;;;;;5006850;28;20850;-75
2021/09/23 06:30:39;;;;;;;96.77;62.83;;;;;;;;;;5007229;28;20222;-75
2021/09/23 06:33:06;;;;;;;90.07;62.27;;;;;;;;;;5007183;28;20216;-75
2021/09/23 06:35:32;;;;;;;84.47;60.87;;;;;;;;;;5007814;28;20262;-75
2021/09/23 06:37:59;;;;;;;85.20;56.77;;;;;;;;;;5006682;28;20247;-75
2021/09/23 06:40:26;;;;;;;79.00;58.17;;;;;;;;;;5007669;28;20752;-76
2021/09/23 06:42:52;;;;;;;80.70;59.30;;;;;;;;;;5007356;28;20634;-75
2021/09/23 06:45:18;;;;;;;82.07;56.60;;;;;;;;;;5006857;28;20277;-75
2021/09/23 06:47:46;;;;;;;83.30;57.87;;;;;;;;;;5006751;28;20219;-75
2021/09/23 06:50:14;;;;;;;84.97;61.73;;;;;;;;;;5005677;28;20266;-75
2021/09/23 06:52:41;;;;;;;81.13;57.07;;;;;;;;;;5007214;28;20211;-75
2021/09/23 06:55:09;;;;;;;90.03;61.60;;;;;;;;;;5004940;28;20298;-74
2021/09/23 06:57:35;;;;;;;81.77;58.97;;;;;;;;;;5007875;28;20275;-74
2021/09/23 07:00:01;;;;;;;85.10;59.60;;;;;;;;;;5007032;28;20285;-74
2021/09/23 07:02:28;;;;;;;87.87;58.33;;;;;;;;;;5006754;28;20277;-74
2021/09/23 07:04:56;;;;;;;70.57;55.60;;;;;;;;;;5006715;28;20216;-74
2021/09/23 07:07:22;;;;;;;73.77;54.17;;;;;;;;;;5005395;28;20215;-74
2021/09/23 07:09:49;;;;;;;66.73;52.43;;;;;;;;;;5005782;28;20267;-74
2021/09/23 07:12:16;;;;;;;69.23;52.73;;;;;;;;;;5006348;28;20234;-74
2021/09/23 07:14:42;;;;;;;68.83;51.50;;;;;;;;;;5007176;28;20215;-75
2021/09/23 07:17:09;;;;;;;63.50;50.30;;;;;;;;;;5006520;28;20219;-74
2021/09/23 07:19:35;;;;;;;66.37;50.70;;;;;;;;;;5007118;28;20284;-74
2021/09/23 07:22:05;;;;;;;64.53;49.10;;;;;;;;;;5006142;28;20317;-74
2021/09/23 07:24:32;;;;;;;61.27;48.50;;;;;;;;;;5005589;28;20787;-75
2021/09/23 07:26:59;;;;;;;60.00;48.23;;;;;;;;;;5005324;28;20235;-75
2021/09/23 07:29:27;;;;;;;61.37;51.07;;;;;;;;;;5005409;28;20212;-74
2021/09/23 07:31:53;;;;;;;65.17;50.83;;;;;;;;;;5005317;28;20213;-74
2021/09/23 07:34:21;;;;;;;68.37;50.73;;;;;;;;;;5004662;28;20307;-75
2021/09/23 07:36:47;;;;;;;67.63;48.57;;;;;;;;;;5005757;28;20817;-74
2021/09/23 07:39:15;;;;;;;60.17;48.40;;;;;;;;;;5005787;28;20543;-75
2021/09/23 07:41:44;;;;;;;59.50;48.67;;;;;;;;;;5005917;28;20244;-74
2021/09/23 07:44:12;;;;;;;63.33;49.87;;;;;;;;;;5006308;28;20266;-76
2021/09/23 07:46:39;;;;;;;61.27;49.03;;;;;;;;;;5006794;28;20782;-76
2021/09/23 07:49:07;;;;;;;59.57;47.73;;;;;;;;;;5005385;28;20239;-76
2021/09/23 07:51:34;;;;;;;66.60;49.37;;;;;;;;;;5006511;28;20224;-76
2021/09/23 07:54:01;;;;;;;57.13;46.10;;;;;;;;;;5005648;28;20574;-76
2021/09/23 07:56:29;;;;;;;63.13;49.33;;;;;;;;;;5006558;28;20236;-76
2021/09/23 07:58:56;;;;;;;59.07;48.40;;;;;;;;;;5006738;28;20316;-75
2021/09/23 08:01:22;;;;;;;64.53;48.27;;;;;;;;;;5005786;28;20546;-76
2021/09/23 08:03:50;;;;;;;58.27;48.23;;;;;;;;;;5003864;28;20667;-77
2021/09/23 08:06:17;;;;;;;62.23;48.47;;;;;;;;;;5003718;28;20227;-77
2021/09/23 08:08:43;;;;;;;63.17;50.13;;;;;;;;;;5005249;28;20214;-76
2021/09/23 08:11:09;;;;;;;56.30;46.60;;;;;;;;;;5005300;28;20228;-77
2021/09/23 08:13:37;;;;;;;58.57;46.77;;;;;;;;;;5005285;28;20751;-76
2021/09/23 08:16:04;;;;;;;54.17;42.10;;;;;;;;;;5003741;28;20212;-76
2021/09/23 08:18:32;;;;;;;45.33;35.43;;;;;;;;;;5005847;28;20214;-76
2021/09/23 08:20:58;;;;;;;44.27;37.87;;;;;;;;;;5005622;28;20242;-76
2021/09/23 08:23:25;;;;;;;38.73;31.10;;;;;;;;;;5006139;28;20924;-77
2021/09/23 08:25:52;;;;;;;32.47;26.63;;;;;;;;;;5005057;28;20220;-76
2021/09/23 08:28:19;;;;;;;45.13;21.33;;;;;;;;;;5004505;28;20260;-75
2021/09/23 08:30:46;;;;;;;21.83;18.50;;;;;;;;;;5004530;28;20218;-75
2021/09/23 08:33:13;;;;;;;20.63;16.37;;;;;;;;;;5005100;28;20211;-76
2021/09/23 08:35:39;;;;;;;23.70;15.53;;;;;;;;;;5004820;28;20209;-75
2021/09/23 08:38:06;;;;;;;21.10;13.13;;;;;;;;;;5005475;28;20216;-75
2021/09/23 08:40:33;;;;;;;24.00;7.70;;;;;;;;;;5005922;28;20232;-76
2021/09/23 08:43:01;;;;;;;13.73;5.43;;;;;;;;;;5005950;28;20264;-75
2021/09/23 08:45:28;;;;;;;8.70;4.50;;;;;;;;;;5005331;28;20218;-75
2021/09/23 08:47:56;;;;;;;11.43;4.07;;;;;;;;;;5005952;28;21268;-75
2021/09/23 08:50:23;;;;;;;10.80;3.63;;;;;;;;;;5005552;28;20213;-75
2021/09/23 08:52:49;;;;;;;7.37;4.00;;;;;;;;;;5005459;28;20225;-75
2021/09/23 08:55:27;;;;;;;5.77;3.60;;;;;;;;;;5004892;28;20216;-75
2021/09/23 08:57:55;;;;;;;6.57;3.70;;;;;;;;;;5004466;28;20265;-75
2021/09/23 09:00:22;;;;;;;6.67;3.80;;;;;;;;;;5004781;28;20239;-76
2021/09/23 09:03:02;;;;;;;13.60;4.67;;;;;;;;;;5005675;28;20222;-75
2021/09/23 09:05:28;;;;;;;8.97;3.50;;;;;;;;;;5004346;28;20229;-76
2021/09/23 09:08:01;;;;;;;19.47;4.73;;;;;;;;;;5005216;28;20229;-75
2021/09/23 09:10:28;;;;;;;115.50;13.60;;;;;;;;;;5005616;28;20221;-77
2021/09/23 09:12:54;;;;;;;17.70;4.70;;;;;;;;;;5004957;28;20249;-76
2021/09/23 09:15:29;;;;;;;5.33;4.20;;;;;;;;;;5005704;28;20691;-78
2021/09/23 09:17:55;;;;;;;8.37;3.73;;;;;;;;;;5004667;28;20213;-75
2021/09/23 09:20:23;;;;;;;9.07;4.10;;;;;;;;;;5005583;28;20603;-76
2021/09/23 09:22:49;;;;;;;6.03;4.10;;;;;;;;;;5005045;28;20228;-76
2021/09/23 09:25:16;;;;;;;8.77;4.30;;;;;;;;;;5005235;28;20217;-76
2021/09/23 09:27:44;;;;;;;31.80;5.03;;;;;;;;;;5005363;28;20231;-76
2021/09/23 09:30:14;;;;;;;9.20;3.70;;;;;;;;;;5008721;28;20226;-75
2021/09/23 09:32:47;;;;;;;6.93;3.87;;;;;;;;;;5009327;28;20608;-76
2021/09/23 09:35:16;;;;;;;20.07;4.80;;;;;;;;;;5008945;28;20662;-77
2021/09/23 09:37:47;;;;;;;6.80;3.37;;;;;;;;;;5008445;28;20247;-75
2021/09/23 09:40:16;;;;;;;11.07;3.20;;;;;;;;;;5007682;28;20221;-75
2021/09/23 09:42:45;;;;;;;25.17;3.80;;;;;;;;;;5008597;28;20245;-75
2021/09/23 09:45:17;;;;;;;35.90;5.10;;;;;;;;;;5007810;28;21006;-77
2021/09/23 09:47:48;;;;;;;10.13;3.13;;;;;;;;;;5008942;28;20215;-75
2021/09/23 09:50:16;;;;;;;16.17;3.23;;;;;;;;;;5008190;28;20218;-76
2021/09/23 09:52:49;;;;;;;21.70;4.17;;;;;;;;;;5009413;28;20211;-74
2021/09/23 09:55:18;;;;;;;5.63;2.90;;;;;;;;;;5008435;28;20238;-75
2021/09/23 09:57:46;;;;;;;10.53;3.80;;;;;;;;;;5008960;28;20238;-75
2021/09/23 10:00:14;;;;;;;15.80;3.67;;;;;;;;;;5006947;28;20635;-75
2021/09/23 10:02:43;;;;;;;13.10;3.07;;;;;;;;;;5008953;28;20580;-75
2021/09/23 10:05:10;;;;;;;13.30;3.83;;;;;;;;;;5008302;28;20761;-75
2021/09/23 10:07:39;;;;;;;47.33;5.97;;;;;;;;;;5008630;28;20212;-76
2021/09/23 10:10:08;;;;;;;27.37;4.53;;;;;;;;;;5007306;28;20222;-75
2021/09/23 10:12:36;;;;;;;31.57;5.63;;;;;;;;;;5008602;28;20230;-75
2021/09/23 10:15:03;;;;;;;41.27;6.07;;;;;;;;;;5008679;28;20742;-75
2021/09/23 10:17:30;;;;;;;21.00;4.33;;;;;;;;;;5007539;28;20217;-75
2021/09/23 10:19:58;;;;;;;11.27;3.13;;;;;;;;;;5007927;28;20331;-74
2021/09/23 10:22:25;;;;;;;6.53;3.00;;;;;;;;;;5007506;28;20819;-75
2021/09/23 10:24:53;;;;;;;9.27;3.17;;;;;;;;;;5007561;28;20254;-74
2021/09/23 10:30:08;;;;;;;9.80;3.17;;;;;;;;;;5007589;28;20205;-73
2021/09/23 10:32:34;;;;;;;8.40;2.97;;;;;;;;;;5007429;28;20215;-75
2021/09/23 10:35:01;;;;;;;9.60;3.40;;;;;;;;;;5008344;28;20260;-74
2021/09/23 10:37:28;;;;;;;7.83;2.80;;;;;;;;;;5007556;28;20254;-74
2021/09/23 10:39:54;;;;;;;8.00;2.80;;;;;;;;;;5007651;28;20214;-77
2021/09/23 10:42:24;;;;;;;6.97;2.60;;;;;;;;;;5007205;28;20249;-74
2021/09/23 10:44:52;;;;;;;10.20;2.90;;;;;;;;;;5007517;28;20223;-74
2021/09/23 10:47:27;;;;;;;6.50;2.70;;;;;;;;;;5007295;28;20211;-74
2021/09/23 10:49:55;;;;;;;5.37;2.03;;;;;;;;;;5007130;28;20249;-74
2021/09/23 10:52:23;;;;;;;6.40;2.50;;;;;;;;;;5007131;28;20219;-75
2021/09/23 10:54:53;;;;;;;10.10;2.93;;;;;;;;;;5007849;28;20234;-75
2021/09/23 10:57:20;;;;;;;9.67;2.60;;;;;;;;;;5008545;28;20246;-74
2021/09/23 10:59:49;;;;;;;7.93;2.60;;;;;;;;;;5007871;28;20215;-74
2021/09/23 11:02:23;;;;;;;8.73;2.50;;;;;;;;;;5007186;28;20284;-74
2021/09/23 11:04:53;;;;;;;6.07;2.87;;;;;;;;;;5007282;28;20214;-75
2021/09/23 11:07:21;;;;;;;8.90;2.70;;;;;;;;;;5007641;28;20700;-74
2021/09/23 11:10:10;;;;;;;7.63;3.13;;;;;;;;;;5007604;28;20216;-74
2021/09/23 11:12:38;;;;;;;8.60;2.53;;;;;;;;;;5008272;28;20208;-74
2021/09/23 11:15:07;;;;;;;9.70;2.80;;;;;;;;;;5008514;28;20310;-75
2021/09/23 11:17:37;;;;;;;8.73;2.30;;;;;;;;;;5009412;28;20281;-74
2021/09/23 11:20:06;;;;;;;11.80;3.00;;;;;;;;;;5008601;28;20686;-75
2021/09/23 11:22:34;;;;;;;9.57;2.30;;;;;;;;;;5008405;28;21105;-76
2021/09/23 11:25:03;;;;;;;7.10;2.17;;;;;;;;;;5007875;28;20239;-74
2021/09/23 11:27:31;;;;;;;8.33;2.63;;;;;;;;;;5007651;28;20231;-74
2021/09/23 11:29:57;;;;;;;8.83;1.83;;;;;;;;;;5007947;28;20226;-75
2021/09/23 11:32:25;;;;;;;59.70;6.63;;;;;;;;;;5007509;28;20238;-74
2021/09/23 11:34:59;;;;;;;6.43;2.03;;;;;;;;;;5007871;28;20219;-76
2021/09/23 11:37:30;;;;;;;19.60;2.90;;;;;;;;;;5007091;28;20253;-74
2021/09/23 11:39:58;;;;;;;6.37;2.57;;;;;;;;;;5007259;28;20281;-74
2021/09/23 11:42:28;;;;;;;7.33;2.17;;;;;;;;;;5007207;28;20244;-74
2021/09/23 11:45:04;;;;;;;8.90;2.40;;;;;;;;;;5006998;28;20204;-74
2021/09/23 11:47:32;;;;;;;12.10;2.37;;;;;;;;;;5007644;28;20568;-74
2021/09/23 11:49:59;;;;;;;4.80;1.60;;;;;;;;;;5007667;28;20514;-75
2021/09/23 11:52:33;;;;;;;6.73;2.37;;;;;;;;;;5008352;28;20219;-74
2021/09/23 11:55:00;;;;;;;7.20;2.10;;;;;;;;;;5007499;28;20222;-74
2021/09/23 11:57:28;;;;;;;6.07;2.00;;;;;;;;;;5007885;28;20234;-74
2021/09/23 11:59:55;;;;;;;7.77;2.20;;;;;;;;;;5006264;28;20227;-74
2021/09/23 12:02:22;;;;;;;3.87;1.90;;;;;;;;;;5006372;28;20305;-75
2021/09/23 12:04:59;;;;;;;7.27;3.37;;;;;;;;;;5006688;28;20810;-74
2021/09/23 12:07:26;;;;;;;15.13;3.60;;;;;;;;;;5007141;28;20301;-75
2021/09/23 12:10:07;;;;;;;9.87;2.40;;;;;;;;;;5006194;28;20223;-74
2021/09/23 12:12:33;;;;;;;8.17;2.57;;;;;;;;;;5006712;28;20252;-74
2021/09/23 12:15:00;;;;;;;7.03;2.40;;;;;;;;;;5006701;28;20218;-76
2021/09/23 12:17:26;;;;;;;12.27;2.70;;;;;;;;;;5006995;28;20556;-75
2021/09/23 12:19:54;;;;;;;8.33;2.50;;;;;;;;;;5007231;28;20906;-74
2021/09/23 12:22:33;;;;;;;10.40;2.50;;;;;;;;;;5006081;28;20365;-75
2021/09/23 12:24:59;;;;;;;11.13;3.10;;;;;;;;;;5005953;28;20223;-74
2021/09/23 12:27:27;;;;;;;7.27;2.67;;;;;;;;;;5006969;28;20854;-75
2021/09/23 12:29:58;;;;;;;7.37;2.40;;;;;;;;;;5006572;28;20300;-75
2021/09/23 12:32:33;;;;;;;55.80;5.53;;;;;;;;;;5006872;28;20222;-75
2021/09/23 12:35:14;;;;;;;23.93;3.57;;;;;;;;;;5006253;28;20660;-74
2021/09/23 12:37:42;;;;;;;8.43;2.77;;;;;;;;;;5006541;28;20252;-74
2021/09/23 12:40:09;;;;;;;11.10;2.57;;;;;;;;;;5006092;28;20681;-74
2021/09/23 12:42:36;;;;;;;8.60;2.80;;;;;;;;;;5007061;28;20765;-74
2021/09/23 12:45:06;;;;;;;6.97;2.23;;;;;;;;;;5006482;28;20222;-74
2021/09/23 12:47:44;;;;;;;10.63;3.00;;;;;;;;;;5006316;28;20272;-74
2021/09/23 12:50:12;;;;;;;14.83;3.13;;;;;;;;;;5006367;28;20852;-74
2021/09/23 12:52:42;;;;;;;8.07;2.50;;;;;;;;;;5007113;28;20226;-74
2021/09/23 12:55:15;;;;;;;10.83;2.70;;;;;;;;;;5005680;28;20214;-74
2021/09/23 12:57:47;;;;;;;10.20;3.00;;;;;;;;;;5006498;28;20242;-74
2021/09/23 13:00:16;;;;;;;8.47;2.80;;;;;;;;;;5006163;28;20211;-76
2021/09/23 13:02:44;;;;;;;13.30;2.90;;;;;;;;;;5008270;28;20263;-74
2021/09/23 13:05:12;;;;;;;10.20;2.67;;;;;;;;;;5012261;28;20222;-74
2021/09/23 13:07:42;;;;;;;11.23;3.00;;;;;;;;;;5012505;28;20232;-74
2021/09/23 13:10:11;;;;;;;9.60;3.17;;;;;;;;;;5012020;28;20559;-74
2021/09/23 13:12:40;;;;;;;11.93;2.97;;;;;;;;;;5013166;28;20695;-73
2021/09/23 13:15:25;;;;;;;9.17;2.27;;;;;;;;;;5012693;28;20222;-74
2021/09/23 13:18:09;;;;;;;5.37;2.50;;;;;;;;;;5011416;28;20210;-73
2021/09/23 13:20:39;;;;;;;5.40;2.33;;;;;;;;;;5012625;28;20225;-73
2021/09/23 13:23:07;;;;;;;9.93;2.40;;;;;;;;;;5013207;28;20242;-74
2021/09/23 13:25:36;;;;;;;11.37;2.10;;;;;;;;;;5012739;28;20218;-74
2021/09/23 13:28:13;;;;;;;5.27;1.83;;;;;;;;;;5012896;28;20234;-74
2021/09/23 13:30:42;;;;;;;6.17;2.73;;;;;;;;;;5013465;28;20210;-74
2021/09/23 13:33:09;;;;;;;10.60;2.73;;;;;;;;;;5012472;28;21001;-74
2021/09/23 13:35:35;;;;;;;12.10;2.80;;;;;;;;;;5013499;28;20218;-74
2021/09/23 13:38:01;;;;;;;8.67;2.17;;;;;;;;;;5012744;28;20718;-74
2021/09/23 13:40:29;;;;;;;22.27;3.20;;;;;;;;;;5013359;28;20228;-74
2021/09/23 13:42:56;;;;;;;6.33;2.63;;;;;;;;;;5011918;28;20250;-73
2021/09/23 13:45:22;;;;;;;9.17;2.20;;;;;;;;;;5012705;28;20645;-74
2021/09/23 13:47:49;;;;;;;5.93;2.33;;;;;;;;;;5012669;28;20253;-73
2021/09/23 13:50:16;;;;;;;9.27;2.57;;;;;;;;;;5012607;28;20221;-74
2021/09/23 13:52:43;;;;;;;9.20;2.00;;;;;;;;;;5012668;28;20732;-74
2021/09/23 13:55:09;;;;;;;10.50;2.80;;;;;;;;;;5012900;28;20662;-74
2021/09/23 13:57:37;;;;;;;9.30;2.40;;;;;;;;;;5013327;28;20544;-74
2021/09/23 14:00:05;;;;;;;6.20;2.43;;;;;;;;;;5012010;28;20223;-74
2021/09/23 14:02:31;;;;;;;8.80;2.27;;;;;;;;;;5012448;28;20325;-74
2021/09/23 14:04:58;;;;;;;8.33;2.43;;;;;;;;;;5011723;28;20598;-74
2021/09/23 14:07:24;;;;;;;9.00;2.80;;;;;;;;;;5012276;28;20214;-75
2021/09/23 14:09:51;;;;;;;12.07;2.53;;;;;;;;;;5012063;28;20209;-74
2021/09/23 14:12:17;;;;;;;6.60;2.60;;;;;;;;;;5012806;28;20226;-74
2021/09/23 14:14:45;;;;;;;8.37;2.60;;;;;;;;;;5010103;28;20218;-74
2021/09/23 14:17:12;;;;;;;10.47;2.47;;;;;;;;;;5009671;28;20218;-73
2021/09/23 14:19:39;;;;;;;6.20;2.00;;;;;;;;;;5010029;28;20231;-73
2021/09/23 14:22:07;;;;;;;10.07;2.90;;;;;;;;;;5008325;28;21194;-73
2021/09/23 14:24:34;;;;;;;8.03;2.50;;;;;;;;;;5010025;28;20222;-74
2021/09/23 14:27:01;;;;;;;7.20;2.17;;;;;;;;;;5008786;28;20267;-74
2021/09/23 14:29:27;;;;;;;5.47;2.43;;;;;;;;;;5010742;28;20222;-73
2021/09/23 14:31:56;;;;;;;8.17;2.50;;;;;;;;;;5009790;28;20228;-73